createdAt,value
2023-03-26T00:01:00.728Z,3.60
2023-03-26T00:06:15.724Z,3.20
2023-03-26T00:11:21.943Z,3.60
2023-03-26T00:16:28.896Z,3.30
2023-03-26T00:21:32.002Z,3.20
2023-03-26T00:26:38.575Z,2.90
2023-03-26T00:31:46.390Z,3.20
2023-03-26T00:36:54.443Z,2.90
2023-03-26T00:41:57.308Z,3.20
2023-03-26T00:47:00.345Z,3.10
2023-03-26T00:52:03.617Z,3.40
2023-03-26T00:57:06.962Z,2.80
2023-03-26T01:02:17.613Z,3.20
2023-03-26T01:07:21.900Z,3.10
2023-03-26T01:12:29.467Z,3.80
2023-03-26T01:17:38.000Z,3.60
2023-03-26T01:22:52.272Z,3.80
2023-03-26T01:27:56.912Z,4.00
2023-03-26T01:33:13.944Z,4.30
2023-03-26T01:38:46.880Z,3.80
2023-03-26T01:44:20.571Z,3.60
2023-03-26T01:49:23.385Z,3.80
2023-03-26T01:54:31.540Z,3.60
2023-03-26T01:59:58.650Z,4.00
2023-03-26T02:05:42.639Z,3.50
2023-03-26T02:10:51.216Z,3.50
2023-03-26T02:16:07.560Z,4.40
2023-03-26T02:21:21.888Z,3.80
2023-03-26T02:26:25.718Z,4.40
2023-03-26T02:31:30.220Z,3.70
2023-03-26T02:36:33.377Z,4.00
2023-03-26T02:41:40.606Z,4.40
2023-03-26T02:46:43.458Z,4.30
2023-03-26T02:51:46.326Z,4.70
2023-03-26T02:56:49.228Z,5.60
2023-03-26T03:01:52.164Z,5.30
2023-03-26T03:06:57.701Z,5.40
2023-03-26T03:12:00.842Z,5.40
2023-03-26T03:17:04.029Z,5.70
2023-03-26T03:22:06.954Z,5.90
2023-03-26T03:27:10.141Z,5.90
2023-03-26T03:32:13.065Z,5.90
2023-03-26T03:37:16.018Z,6.00
2023-03-26T03:42:18.973Z,6.40
2023-03-26T03:47:23.107Z,5.70
2023-03-26T03:52:28.095Z,5.60
2023-03-26T03:57:32.086Z,6.90
2023-03-26T04:02:35.691Z,7.20
2023-03-26T04:07:38.879Z,7.10
2023-03-26T04:12:41.873Z,7.50
2023-03-26T04:17:45.478Z,6.60
2023-03-26T04:22:48.393Z,7.60
2023-03-26T04:27:51.338Z,6.30
2023-03-26T04:32:58.600Z,6.70
2023-03-26T04:38:06.587Z,6.40
2023-03-26T04:43:16.423Z,6.70
2023-03-26T04:48:20.533Z,5.90
2023-03-26T04:53:24.323Z,6.10
2023-03-26T04:58:36.005Z,6.20
2023-03-26T05:03:39.295Z,6.10
2023-03-26T05:08:42.259Z,5.90
2023-03-26T05:13:45.339Z,5.70
2023-03-26T05:18:48.305Z,6.90
2023-03-26T05:23:51.502Z,6.90
2023-03-26T05:28:54.351Z,6.30
2023-03-26T05:34:00.511Z,5.80
2023-03-26T05:39:04.196Z,6.20
2023-03-26T05:44:07.321Z,5.90
2023-03-26T05:49:10.389Z,5.90
2023-03-26T05:54:13.306Z,5.70
2023-03-26T05:59:16.548Z,5.50
2023-03-26T06:04:19.979Z,5.50
2023-03-26T06:09:23.041Z,5.50
2023-03-26T06:14:26.154Z,5.00
2023-03-26T06:19:29.198Z,4.60
2023-03-26T06:24:33.508Z,4.40
2023-03-26T06:29:36.499Z,4.00
2023-03-26T06:34:39.611Z,3.80
2023-03-26T06:39:43.528Z,3.90
2023-03-26T06:44:46.500Z,3.40
2023-03-26T06:49:49.431Z,3.10
2023-03-26T06:54:52.298Z,3.40
2023-03-26T06:59:55.250Z,3.40
2023-03-26T07:04:58.520Z,3.10
2023-03-26T07:10:01.994Z,3.50
2023-03-26T07:15:06.246Z,3.10
2023-03-26T07:20:10.660Z,3.10
2023-03-26T07:25:15.626Z,3.30
2023-03-26T07:30:59.983Z,3.40
2023-03-26T07:36:32.228Z,3.10
2023-03-26T07:41:57.594Z,3.50
2023-03-26T07:47:04.878Z,3.00
2023-03-26T07:52:11.549Z,2.70
2023-03-26T07:57:33.444Z,2.70
2023-03-26T08:02:57.302Z,2.30
2023-03-26T08:08:36.052Z,2.20
2023-03-26T08:14:17.062Z,2.00
2023-03-26T08:19:34.987Z,2.40
2023-03-26T08:25:05.432Z,2.80
2023-03-26T08:30:20.749Z,3.00
2023-03-26T08:35:25.936Z,2.40
2023-03-26T08:41:05.388Z,2.60
2023-03-26T08:46:42.210Z,2.60
2023-03-26T08:52:16.669Z,2.30
2023-03-26T08:57:55.043Z,2.60
2023-03-26T09:03:23.155Z,2.20
2023-03-26T09:08:53.933Z,2.60
2023-03-26T09:14:09.298Z,2.10
2023-03-26T09:19:53.743Z,1.80
2023-03-26T09:25:14.914Z,1.60
2023-03-26T09:30:33.086Z,1.40
2023-03-26T09:35:55.231Z,1.10
2023-03-26T09:41:15.663Z,1.10
2023-03-26T09:46:36.885Z,3.30
2023-03-26T09:52:10.278Z,3.40
2023-03-26T09:57:37.750Z,2.10
2023-03-26T10:03:12.515Z,3.60
2023-03-26T10:08:42.275Z,1.10
2023-03-26T10:14:07.373Z,1.10
2023-03-26T10:19:29.492Z,0.80
2023-03-26T10:24:57.492Z,1.40
2023-03-26T10:30:22.181Z,1.00
2023-03-26T10:35:30.470Z,1.10
2023-03-26T10:40:43.837Z,1.10
2023-03-26T10:46:29.823Z,1.20
2023-03-26T10:51:55.998Z,1.50
2023-03-26T10:57:06.339Z,1.90
2023-03-26T11:02:59.625Z,1.10
2023-03-26T11:08:18.015Z,1.70
2023-03-26T11:13:46.661Z,1.30
2023-03-26T11:19:00.987Z,1.30
2023-03-26T11:24:24.937Z,1.80
2023-03-26T11:29:39.528Z,2.10
2023-03-26T11:35:08.413Z,5.30
2023-03-26T11:40:21.545Z,2.00
2023-03-26T11:45:30.957Z,1.60
2023-03-26T11:50:41.697Z,3.00
2023-03-26T19:03:47.150Z,12.10
2023-03-26T19:08:51.256Z,7.30
2023-03-26T19:14:21.218Z,2.30
2023-03-26T19:19:33.012Z,7.90
2023-03-26T19:24:40.545Z,3.80
2023-03-26T19:29:45.056Z,3.30
2023-03-26T19:34:52.259Z,2.20
2023-03-26T19:40:22.307Z,1.00
2023-03-26T19:45:26.572Z,1.00
2023-03-26T19:50:34.199Z,3.00
2023-03-26T19:55:43.055Z,2.40
2023-03-26T20:00:48.881Z,2.20
2023-03-26T20:05:52.319Z,1.50
2023-03-26T20:11:04.447Z,1.50
2023-03-26T20:16:35.184Z,4.20
2023-03-26T20:21:44.528Z,1.60
2023-03-26T20:26:48.289Z,2.70
2023-03-26T20:31:55.300Z,1.30
2023-03-26T20:37:21.630Z,1.30
2023-03-26T20:42:24.861Z,1.30
2023-03-26T20:47:30.814Z,1.20
2023-03-26T20:52:34.243Z,1.40
2023-03-26T20:57:37.242Z,0.90
2023-03-26T21:02:47.929Z,1.70
2023-03-26T21:07:54.644Z,1.60
2023-03-26T21:13:27.422Z,1.10
2023-03-26T21:18:42.674Z,1.20
2023-03-26T21:24:05.669Z,1.60
2023-03-26T21:29:19.228Z,1.90
2023-03-26T21:34:37.630Z,2.30
2023-03-26T21:39:45.020Z,4.90
2023-03-26T21:44:48.788Z,4.60
2023-03-26T21:49:54.947Z,5.40
2023-03-26T21:55:04.513Z,4.00
2023-03-26T22:00:20.797Z,4.80
2023-03-26T22:05:54.014Z,3.70
2023-03-26T22:10:59.808Z,3.80
2023-03-26T22:16:02.955Z,4.60
2023-03-26T22:21:07.195Z,4.80
2023-03-26T22:26:10.393Z,5.00
2023-03-26T22:31:26.545Z,6.50
2023-03-26T22:36:33.265Z,8.10
2023-03-26T22:41:47.172Z,7.10
2023-03-26T22:46:54.617Z,8.60
2023-03-26T22:52:06.237Z,9.20
2023-03-26T22:57:18.238Z,7.00
2023-03-26T23:02:27.302Z,6.80
2023-03-26T23:07:53.729Z,7.70
2023-03-26T23:13:05.794Z,7.60
2023-03-26T23:18:19.533Z,7.50
2023-03-26T23:23:32.233Z,4.70
2023-03-26T23:28:41.129Z,4.70
2023-03-26T23:34:01.466Z,3.80
2023-03-26T23:39:50.072Z,4.30
2023-03-26T23:45:06.350Z,4.00
2023-03-26T23:50:29.269Z,4.30
2023-03-26T23:55:49.928Z,4.00
